< < Back
Terminal Aerodrome Forecast


Current Version              Previous Versions:   1  2  3  4  5  6  7  8  9  

Terminal Aerodrome Forecast

589
FTUS42 KCAE 281531 AAB
TAFCAE
TAF AMD
KCAE 281531Z 2816/2912 07008KT P6SM BKN250
     FM281700 07008KT P6SM BKN035
     FM290200 09003KT P6SM SCT250=

Latest METAR

026
SAUS80 KWBC 290300
MTRCAE
METAR KCAE 290256Z 07003KT 10SM FEW250 24/16 A3016 RMK AO2 SLP210
T02440161 51019


USA.gov is the U.S. government's official web portal to all federal, state and local government web resources and services.